Time;durP1;ratioP1;P1;durP2;ratioP2;P2;SDS_P1;SDS_P2;PMS_P1;PMS_P2;Temp;Humidity;BMP_temperature;BMP_pressure;BME280_temperature;BME280_humidity;BME280_pressure;Samples;Min_cycle;Max_cycle;Signal;HPM_P1;HPM_P2
2023/02/21 05:06:07;;;;;;;17.30;8.70;;;4.10;99.90;;;;;;5121427;22;20580;31
2023/02/21 05:08:37;;;;;;;17.85;9.07;;;;;;;;;;5068304;28;20177;-81
2023/02/21 05:11:08;;;;;;;12.27;7.85;;;4.20;99.90;;;;;;5059079;28;20489;-81
2023/02/21 05:13:35;;;;;;;16.70;9.52;;;;;;;;;;5082439;28;20387;-83
2023/02/21 05:16:13;;;;;;;16.52;8.43;;;4.20;99.90;;;;;;5089278;28;20726;-83
2023/02/21 05:18:44;;;;;;;17.15;8.57;;;4.20;99.90;;;;;;5091624;28;20024;-83
2023/02/21 05:21:11;;;;;;;20.73;8.65;;;;;;;;;;5068335;28;20391;-81
2023/02/21 05:23:39;;;;;;;18.42;9.10;;;;;;;;;;5074473;28;20214;-80
2023/02/21 05:26:59;;;;;;;22.05;8.93;;;4.20;99.90;;;;;;5078712;28;20039;-85
2023/02/21 05:29:37;;;;;;;21.48;9.80;;;4.20;99.90;;;;;;5085493;28;20043;-84
2023/02/21 05:32:05;;;;;;;16.75;8.40;;;3.80;99.90;;;;;;5089642;28;20131;-84
2023/02/21 05:34:46;;;;;;;15.57;7.75;;;4.10;99.90;;;;;;5073714;28;20024;-84
2023/02/21 05:37:20;;;;;;;16.55;8.77;;;;;;;;;;5086737;28;20111;-85
2023/02/21 05:39:47;;;;;;;19.35;8.20;;;4.00;99.90;;;;;;5079153;28;20050;-85
2023/02/21 05:42:26;;;;;;;19.17;8.98;;;4.00;99.90;;;;;;5072810;28;20054;-83
2023/02/21 05:45:17;;;;;;;15.82;8.65;;;4.00;99.90;;;;;;5076790;28;20098;-86
2023/02/21 05:47:43;;;;;;;17.30;8.40;;;;;;;;;;5069393;28;20021;-84
2023/02/21 05:50:11;;;;;;;17.90;8.48;;;3.90;99.90;;;;;;5065701;28;20029;-84
2023/02/21 05:52:37;;;;;;;20.58;9.23;;;3.90;99.90;;;;;;5082238;28;20551;-82
2023/02/21 05:55:02;;;;;;;17.15;7.80;;;4.00;99.90;;;;;;5087428;28;20062;-84
2023/02/21 05:57:28;;;;;;;21.58;8.43;;;;;;;;;;5070316;28;20450;-80
2023/02/21 05:59:54;;;;;;;17.13;8.50;;;4.00;99.90;;;;;;5065836;28;20405;-82
2023/02/21 06:02:20;;;;;;;18.65;9.40;;;4.30;99.90;;;;;;5090041;28;20063;-83
2023/02/21 06:04:46;;;;;;;18.38;8.32;;;;;;;;;;5086952;28;20059;-81
2023/02/21 06:07:12;;;;;;;26.17;11.43;;;3.80;99.90;;;;;;5087185;28;20036;-83
2023/02/21 06:09:37;;;;;;;18.40;9.35;;;3.80;99.90;;;;;;5080743;28;20088;-82
2023/02/21 06:12:04;;;;;;;18.45;8.93;;;;;;;;;;5082140;28;20500;-84
2023/02/21 06:14:29;;;;;;;17.05;9.20;;;3.80;99.90;;;;;;5060913;28;20040;-83
2023/02/21 06:16:55;;;;;;;15.55;8.45;;;3.80;99.90;;;;;;5061228;28;20028;-81
2023/02/21 06:19:21;;;;;;;19.63;9.68;;;;;;;;;;5089222;28;20485;-82
2023/02/21 06:21:47;;;;;;;15.93;8.65;;;3.80;99.90;;;;;;5088107;28;20036;-84
2023/02/21 06:24:13;;;;;;;19.27;9.25;;;3.80;99.90;;;;;;5074468;28;20051;-82
2023/02/21 06:26:41;;;;;;;15.85;8.65;;;3.80;99.90;;;;;;5081101;28;20035;-82
2023/02/21 06:29:07;;;;;;;15.85;8.50;;;3.70;99.90;;;;;;5080693;28;20392;-79
2023/02/21 06:31:35;;;;;;;18.85;9.15;;;3.70;99.90;;;;;;5097074;28;20012;-79
2023/02/21 06:34:00;;;;;;;17.80;8.68;;;3.70;99.90;;;;;;5085806;28;20488;-81
2023/02/21 06:36:29;;;;;;;21.17;10.82;;;3.70;99.90;;;;;;5088349;28;20495;-84
2023/02/21 06:38:56;;;;;;;20.20;9.95;;;3.70;99.90;;;;;;5080559;28;20475;-84
2023/02/21 06:41:28;;;;;;;25.83;9.95;;;3.70;99.90;;;;;;5073911;28;20124;-80
2023/02/21 06:43:55;;;;;;;22.90;10.68;;;3.70;99.90;;;;;;5072772;28;20036;-83
2023/02/21 06:46:23;;;;;;;24.67;11.60;;;3.60;99.90;;;;;;5090994;28;20028;-83
2023/02/21 06:48:50;;;;;;;25.08;10.85;;;3.70;99.90;;;;;;5088683;28;20020;-82
2023/02/21 06:51:16;;;;;;;23.15;10.27;;;3.70;99.90;;;;;;5077814;28;20036;-81
2023/02/21 06:53:43;;;;;;;22.05;10.23;;;3.80;99.90;;;;;;5078584;28;20258;-80
2023/02/21 06:56:09;;;;;;;27.83;12.90;;;3.80;99.90;;;;;;5066532;28;20078;-84
2023/02/21 06:58:35;;;;;;;26.08;10.32;;;3.80;99.90;;;;;;5072570;28;20024;-81
2023/02/21 07:01:01;;;;;;;22.25;10.98;;;3.80;99.90;;;;;;5080703;28;20036;-80
2023/02/21 07:03:28;;;;;;;20.90;10.98;;;;;;;;;;5094139;28;20048;-85
2023/02/21 07:05:54;;;;;;;24.05;11.38;;;3.80;99.90;;;;;;5069965;28;20028;-83
2023/02/21 07:08:20;;;;;;;25.70;10.25;;;3.70;99.90;;;;;;5077400;28;20028;-83
2023/02/21 07:10:46;;;;;;;24.00;10.38;;;3.70;99.90;;;;;;5051706;28;20067;-82
2023/02/21 07:13:12;;;;;;;22.33;10.65;;;3.60;99.90;;;;;;5069535;28;20024;-84
2023/02/21 07:16:10;;;;;;;23.27;10.98;;;3.60;99.90;;;;;;5080125;28;20032;-80
2023/02/21 07:18:38;;;;;;;21.92;10.32;;;3.60;99.90;;;;;;5085756;28;20039;-84
2023/02/21 07:21:17;;;;;;;23.38;11.10;;;3.70;99.90;;;;;;5061669;28;20503;-85
2023/02/21 07:24:25;;;;;;;18.40;10.55;;;3.80;99.90;;;;;;5072795;28;20077;-84
2023/02/21 07:27:18;;;;;;;23.83;11.15;;;3.80;99.90;;;;;;5083267;28;20036;-82
2023/02/21 07:30:30;;;;;;;21.77;10.43;;;3.80;99.90;;;;;;5079855;28;20025;-83
2023/02/21 07:33:41;;;;;;;22.02;10.57;;;3.90;99.90;;;;;;5080540;28;20275;-84
2023/02/21 07:36:44;;;;;;;19.25;10.93;;;3.90;99.90;;;;;;5059901;28;20108;-87
2023/02/21 07:40:17;;;;;;;26.73;13.80;;;3.90;99.90;;;;;;5082154;28;20031;-83
2023/02/21 07:43:04;;;;;;;18.05;10.75;;;;;;;;;;5053002;28;20020;-82
2023/02/21 07:45:30;;;;;;;20.17;11.27;;;;;;;;;;5088763;28;20020;-83
2023/02/21 07:47:57;;;;;;;22.95;10.90;;;;;;;;;;5086123;28;20033;-84
2023/02/21 07:50:23;;;;;;;22.48;11.57;;;;;;;;;;5083751;28;20028;-85
2023/02/21 07:52:52;;;;;;;22.13;11.27;;;4.10;99.90;;;;;;5083505;28;20047;-83
2023/02/21 07:58:38;;;;;;;20.85;11.20;;;4.20;99.90;;;;;;5061192;28;20042;-84
2023/02/21 08:01:06;;;;;;;19.67;10.98;;;4.40;99.90;;;;;;5062307;28;20036;-83
2023/02/21 08:03:33;;;;;;;21.42;11.73;;;4.40;99.90;;;;;;5054288;28;20075;-86
2023/02/21 08:06:01;;;;;;;17.52;10.90;;;4.60;99.90;;;;;;5050035;28;20029;-85
2023/02/21 08:08:27;;;;;;;21.00;11.52;;;;;;;;;;5083781;28;20096;-82
2023/02/21 08:10:53;;;;;;;22.13;12.60;;;4.50;99.90;;;;;;5081828;28;20284;-83
2023/02/21 08:13:20;;;;;;;22.85;11.32;;;;;;;;;;5090754;28;20020;-84
2023/02/21 08:15:47;;;;;;;37.83;12.88;;;4.60;99.90;;;;;;5065720;28;20069;-85
2023/02/21 08:18:19;;;;;;;22.83;11.85;;;4.70;99.90;;;;;;5099955;28;20040;-84
2023/02/21 08:23:42;;;;;;;21.23;11.65;;;4.90;99.90;;;;;;5095381;28;20388;-85
2023/02/21 08:26:13;;;;;;;24.83;10.95;;;5.00;99.90;;;;;;5071706;28;20032;-86
2023/02/21 08:28:47;;;;;;;25.33;11.93;;;5.00;99.90;;;;;;5083474;28;20012;-87
2023/02/21 08:31:22;;;;;;;;;;;5.10;99.90;;;;;;5082608;28;20040;-85
2023/02/21 08:33:51;;;;;;;26.35;11.32;;;5.20;99.90;;;;;;5069499;28;20308;-88
2023/02/21 08:36:18;;;;;;;18.85;10.82;;;;;;;;;;5095204;28;20024;-85
2023/02/21 08:38:53;;;;;;;17.95;10.32;;;5.40;99.90;;;;;;5076560;28;20032;-87
2023/02/21 08:41:28;;;;;;;20.80;11.35;;;5.50;99.90;;;;;;5078199;28;20024;-86
2023/02/21 08:43:56;;;;;;;19.27;10.65;;;5.70;99.90;;;;;;5073652;28;20036;-86
2023/02/21 08:46:23;;;;;;;18.35;11.10;;;5.70;99.90;;;;;;5065065;28;20032;-87
2023/02/21 08:48:51;;;;;;;17.42;10.50;;;5.80;99.90;;;;;;5098616;28;20028;-84
2023/02/21 08:51:33;;;;;;;21.48;10.68;;;5.90;99.90;;;;;;5075938;28;20035;-86
2023/02/21 08:54:46;;;;;;;19.38;10.50;;;6.00;99.90;;;;;;5100676;28;20025;-86
2023/02/21 08:57:19;;;;;;;19.40;9.75;;;6.10;99.90;;;;;;5095398;28;20492;-86
2023/02/21 08:59:51;;;;;;;19.45;10.90;;;6.10;99.90;;;;;;5098937;28;20082;-85
2023/02/21 09:02:45;;;;;;;21.13;10.80;;;6.20;99.90;;;;;;5083841;28;20021;-83
2023/02/21 09:05:18;;;;;;;17.88;10.30;;;7.20;99.90;;;;;;5078557;28;20032;-87
2023/02/21 09:08:19;;;;;;;16.95;10.88;;;6.50;99.90;;;;;;5085907;28;20483;-86
2023/02/21 09:11:10;;;;;;;;;;;6.70;99.90;;;;;;5104845;28;20016;-86
2023/02/21 09:14:04;;;;;;;16.40;10.00;;;6.80;99.90;;;;;;5101482;28;19944;-85
2023/02/21 09:17:09;;;;;;;15.63;9.48;;;6.80;99.90;;;;;;5092015;28;20413;-84
2023/02/21 09:20:56;;;;;;;18.15;10.25;;;7.00;99.90;;;;;;5054519;28;20046;-85
2023/02/21 09:24:12;;;;;;;21.25;10.27;;;7.20;99.90;;;;;;5014781;28;20057;-87
2023/02/21 09:27:35;;;;;;;16.33;9.48;;;7.40;99.90;;;;;;5026200;28;20532;-87
2023/02/21 09:30:12;;;;;;;18.60;10.45;;;7.40;99.90;;;;;;5027739;28;20033;-86
2023/02/21 09:32:41;;;;;;;21.25;11.05;;;7.60;99.90;;;;;;5081077;28;20028;-86
2023/02/21 09:39:12;;;;;;;20.30;10.48;;;7.80;99.90;;;;;;5069422;28;20040;-84
2023/02/21 09:42:06;;;;;;;18.52;10.07;;;7.10;99.90;;;;;;5090048;28;20035;-86
2023/02/21 09:44:58;;;;;;;16.90;9.57;;;8.10;99.90;;;;;;5095362;28;20038;-84
2023/02/21 09:48:27;;;;;;;17.52;9.63;;;8.30;99.90;;;;;;5089013;28;20035;-87
2023/02/21 09:52:03;;;;;;;19.20;10.43;;;8.40;99.90;;;;;;5099809;28;20032;-86
2023/02/21 09:55:00;;;;;;;24.65;11.68;;;8.40;99.90;;;;;;5058899;28;20060;-85
2023/02/21 09:57:54;;;;;;;18.85;10.23;;;8.60;99.90;;;;;;5067819;28;20033;-85
2023/02/21 10:00:41;;;;;;;22.08;11.55;;;8.60;99.90;;;;;;5065058;28;20087;-85
2023/02/21 10:04:16;;;;;;;19.13;10.43;;;8.70;99.90;;;;;;5086049;28;20032;-87
2023/02/21 10:07:53;;;;;;;24.63;10.82;;;9.00;99.90;;;;;;5089726;28;20051;-87
2023/02/21 10:11:13;;;;;;;19.25;10.15;;;9.20;99.90;;;;;;5099034;28;20059;-86
2023/02/21 10:14:29;;;;;;;17.63;10.10;;;9.50;99.90;;;;;;5034073;28;20055;-84
2023/02/21 10:17:14;;;;;;;21.13;10.55;;;9.50;99.90;;;;;;5078768;28;20040;-86
2023/02/21 10:20:19;;;;;;;22.92;10.15;;;9.60;99.90;;;;;;5079822;28;20396;-82
2023/02/21 10:23:13;;;;;;;23.67;11.15;;;9.70;99.90;;;;;;5069717;28;20087;-88
2023/02/21 10:26:34;;;;;;;25.55;11.35;;;9.90;99.90;;;;;;5062002;28;20135;-88
2023/02/21 10:30:09;;;;;;;21.33;10.05;;;10.00;99.90;;;;;;5075281;28;20032;-84
2023/02/21 10:33:14;;;;;;;16.20;10.18;;;10.20;99.90;;;;;;5052965;28;20051;-88
2023/02/21 10:36:21;;;;;;;19.30;10.35;;;10.40;99.90;;;;;;5075584;28;20025;-85
2023/02/21 10:39:22;;;;;;;16.98;9.80;;;10.50;99.90;;;;;;5080612;28;20052;-85
2023/02/21 10:41:58;;;;;;;17.73;9.95;;;10.60;99.90;;;;;;5076453;28;20060;-84
2023/02/21 10:44:39;;;;;;;19.58;10.68;;;10.70;99.90;;;;;;5057124;28;20041;-86
2023/02/21 10:47:46;;;;;;;17.50;9.82;;;10.70;99.90;;;;;;5054443;28;20059;-84
2023/02/21 10:50:40;;;;;;;21.83;11.10;;;10.90;99.90;;;;;;5073386;28;20032;-84
2023/02/21 10:53:55;;;;;;;16.85;10.60;;;11.00;99.90;;;;;;5068812;28;20275;-89
2023/02/21 10:56:28;;;;;;;16.30;9.88;;;11.20;99.90;;;;;;5075361;28;20033;-84
2023/02/21 10:59:34;;;;;;;19.88;10.05;;;11.20;99.90;;;;;;5055815;28;20036;-86
2023/02/21 11:02:39;;;;;;;17.95;10.30;;;11.30;99.90;;;;;;5070421;28;20037;-85
2023/02/21 11:08:58;;;;;;;19.35;10.27;;;11.50;99.90;;;;;;5097034;28;20043;-85
2023/02/21 11:12:18;;;;;;;18.65;10.15;;;11.60;99.90;;;;;;5096392;28;20029;-85
2023/02/21 11:18:28;;;;;;;14.52;8.90;;;11.80;99.90;;;;;;5036807;28;20090;-87
2023/02/21 11:21:17;;;;;;;16.95;9.63;;;11.90;99.90;;;;;;5030156;28;20076;-84
2023/02/21 11:24:01;;;;;;;14.93;9.43;;;;;;;;;;5059292;28;20029;-84
2023/02/21 11:26:29;;;;;;;18.27;10.27;;;;;;;;;;5062827;28;20033;-84
2023/02/21 11:29:06;;;;;;;14.35;9.60;;;12.20;99.90;;;;;;5061147;28;20024;-81
2023/02/21 11:31:40;;;;;;;14.57;9.00;;;;;;;;;;5062096;28;20021;-81
2023/02/21 11:34:11;;;;;;;16.67;8.93;;;12.20;99.90;;;;;;5079361;28;20029;-84
2023/02/21 11:36:43;;;;;;;13.63;8.80;;;12.40;99.90;;;;;;5046284;28;20079;-84
2023/02/21 11:39:26;;;;;;;16.83;9.20;;;12.50;99.90;;;;;;5078384;28;20024;-80
2023/02/21 11:42:09;;;;;;;14.85;8.95;;;12.60;99.90;;;;;;5081926;28;20028;-83
2023/02/21 11:44:40;;;;;;;18.08;8.68;;;12.60;99.90;;;;;;5098884;28;20047;-84
2023/02/21 11:47:28;;;;;;;16.30;8.60;;;12.70;99.90;;;;;;5081865;28;20411;-78
2023/02/21 11:50:17;;;;;;;15.57;8.10;;;13.60;99.90;;;;;;5062545;28;20428;-80
2023/02/21 11:52:49;;;;;;;17.33;9.90;;;12.80;99.90;;;;;;5078617;28;20461;-85
2023/02/21 11:55:19;;;;;;;20.08;9.85;;;12.90;99.90;;;;;;5080521;28;20058;-80
2023/02/21 11:58:12;;;;;;;18.35;8.95;;;12.90;99.90;;;;;;5080383;28;20021;-82
2023/02/21 12:01:01;;;;;;;15.93;9.05;;;13.00;99.90;;;;;;5081745;28;20024;-82
2023/02/21 12:03:42;;;;;;;15.43;9.65;;;;;;;;;;5100057;28;20357;-80
2023/02/21 12:06:28;;;;;;;18.42;9.50;;;13.10;99.90;;;;;;5100701;28;20034;-81
2023/02/21 12:09:09;;;;;;;16.90;8.73;;;;;;;;;;5062437;28;20091;-83
2023/02/21 12:12:08;;;;;;;16.25;9.35;;;13.20;99.90;;;;;;5063624;28;20051;-80
2023/02/21 12:15:37;;;;;;;15.52;8.60;;;13.20;99.90;;;;;;5055621;28;20060;-85
2023/02/21 12:18:26;;;;;;;15.20;8.52;;;13.40;99.90;;;;;;5043649;28;20047;-85
2023/02/21 12:21:18;;;;;;;16.33;8.50;;;;;;;;;;5069601;28;20032;-84
2023/02/21 12:24:21;;;;;;;14.55;8.52;;;13.70;99.90;;;;;;5068775;28;20032;-84
2023/02/21 12:27:18;;;;;;;14.80;7.53;;;13.70;99.90;;;;;;5073299;28;20035;-83
2023/02/21 12:30:35;;;;;;;12.65;7.13;;;13.80;99.90;;;;;;5052836;28;20033;-86
2023/02/21 12:33:53;;;;;;;12.70;7.63;;;14.10;99.90;;;;;;5068771;28;20029;-85
2023/02/21 12:36:27;;;;;;;12.43;7.20;;;14.30;99.90;;;;;;5061380;28;20051;-85
2023/02/21 12:39:00;;;;;;;10.13;6.50;;;14.40;99.90;;;;;;5075104;28;20025;-84
2023/02/21 12:42:05;;;;;;;12.90;6.15;;;14.40;99.90;;;;;;5066116;28;20108;-82
2023/02/21 12:44:40;;;;;;;12.02;6.43;;;;;;;;;;5041479;28;20033;-85
2023/02/21 12:47:20;;;;;;;11.57;5.97;;;14.80;99.90;;;;;;5074114;28;20458;-83
2023/02/21 12:49:58;;;;;;;10.60;5.68;;;14.90;99.90;;;;;;5056748;28;20020;-81
2023/02/21 12:52:50;;;;;;;12.82;5.70;;;14.90;99.90;;;;;;5067398;28;20017;-81
2023/02/21 12:55:35;;;;;;;9.48;6.03;;;15.00;99.90;;;;;;5071391;28;20092;-81
2023/02/21 12:58:30;;;;;;;9.63;5.90;;;15.10;99.90;;;;;;5058805;28;20068;-84
2023/02/21 13:01:40;;;;;;;13.38;7.03;;;15.10;99.90;;;;;;5073267;28;20106;-83
2023/02/21 13:04:41;;;;;;;10.23;5.45;;;15.30;99.90;;;;;;5056127;28;20033;-82
2023/02/21 13:07:33;;;;;;;10.50;5.72;;;15.70;99.90;;;;;;5039267;28;20055;-81
2023/02/21 13:10:12;;;;;;;13.32;6.38;;;15.80;99.50;;;;;;5062835;28;20333;-80
2023/02/21 13:12:44;;;;;;;10.15;5.45;;;15.80;99.30;;;;;;5071622;28;20028;-87
2023/02/21 13:15:20;;;;;;;11.73;5.75;;;15.80;99.20;;;;;;5048633;28;20044;-82
2023/02/21 13:18:36;;;;;;;9.60;5.65;;;15.50;99.70;;;;;;5049083;28;20063;-83
2023/02/21 13:21:24;;;;;;;10.77;5.65;;;15.30;99.90;;;;;;5008055;28;20325;-80
2023/02/21 13:27:23;;;;;;;10.68;5.88;;;15.40;99.90;;;;;;5074060;28;20071;-82
2023/02/21 13:29:49;;;;;;;9.95;6.05;;;15.60;99.90;;;;;;5064397;28;20027;-84
2023/02/21 13:32:20;;;;;;;10.95;5.80;;;15.50;99.50;;;;;;5061344;28;20041;-83
2023/02/21 13:34:55;;;;;;;9.80;5.65;;;15.50;99.50;;;;;;5058500;28;20059;-82
2023/02/21 13:37:24;;;;;;;10.27;5.45;;;15.50;99.90;;;;;;5060533;28;20028;-81
2023/02/21 13:40:00;;;;;;;8.43;4.70;;;15.40;99.90;;;;;;5052024;28;20021;-81
2023/02/21 13:42:28;;;;;;;8.60;5.10;;;15.10;99.80;;;;;;5075017;28;20036;-82
2023/02/21 13:45:18;;;;;;;8.90;5.15;;;15.10;99.90;;;;;;5073302;28;20028;-82
2023/02/21 13:47:58;;;;;;;9.50;5.18;;;15.10;99.90;;;;;;5063880;28;20054;-83
2023/02/21 13:50:34;;;;;;;8.40;4.80;;;15.10;99.90;;;;;;5066300;28;20028;-83
2023/02/21 13:53:18;;;;;;;9.23;5.20;;;15.20;99.90;;;;;;5067919;28;20074;-84
2023/02/21 13:55:59;;;;;;;7.72;4.70;;;15.20;99.40;;;;;;5077547;28;20058;-85
2023/02/21 13:58:47;;;;;;;9.90;5.22;;;15.10;99.90;;;;;;5075498;28;20419;-83
2023/02/21 14:01:37;;;;;;;8.48;4.70;;;15.20;99.90;;;;;;5076467;28;20059;-81
2023/02/21 14:04:41;;;;;;;7.63;4.90;;;15.20;99.90;;;;;;5067279;28;20029;-82
2023/02/21 14:07:08;;;;;;;7.25;4.55;;;;;;;;;;5073753;28;20028;-81
2023/02/21 14:09:37;;;;;;;8.88;4.50;;;15.10;99.80;;;;;;5050592;28;20032;-83
2023/02/21 14:12:04;;;;;;;8.20;4.60;;;15.10;99.90;;;;;;5053124;28;20025;-84
2023/02/21 14:14:41;;;;;;;8.15;3.80;;;15.10;99.90;;;;;;5067433;28;20032;-83
2023/02/21 14:17:12;;;;;;;7.20;3.83;;;15.00;99.80;;;;;;5062699;28;20028;-82
2023/02/21 14:19:38;;;;;;;7.47;3.72;;;14.80;99.90;;;;;;5072961;28;20029;-80
2023/02/21 14:22:23;;;;;;;8.65;3.72;;;14.90;99.90;;;;;;5055358;28;20028;-83
2023/02/21 14:25:02;;;;;;;8.25;4.28;;;14.90;99.90;;;;;;5068487;28;20035;-84
2023/02/21 14:27:27;;;;;;;10.27;4.72;;;14.80;99.90;;;;;;5064847;28;20100;-81
2023/02/21 14:30:11;;;;;;;8.00;4.32;;;14.80;99.90;;;;;;5052764;28;20088;-82
2023/02/21 14:32:45;;;;;;;6.80;3.60;;;14.80;99.90;;;;;;5073653;28;20340;-84
2023/02/21 14:35:31;;;;;;;6.60;3.55;;;14.90;99.90;;;;;;5074708;28;20036;-82
2023/02/21 14:38:13;;;;;;;8.60;4.28;;;15.00;99.90;;;;;;5058841;28;20037;-83
2023/02/21 14:41:02;;;;;;;6.50;3.60;;;15.00;99.90;;;;;;5066313;28;20032;-85
2023/02/21 14:43:38;;;;;;;7.28;3.78;;;14.90;99.90;;;;;;5067942;28;20570;-80
2023/02/21 14:46:07;;;;;;;6.97;3.30;;;14.90;99.90;;;;;;5070902;28;20033;-81
2023/02/21 14:49:08;;;;;;;6.95;3.53;;;14.80;99.90;;;;;;5050297;28;20017;-83
2023/02/21 14:52:12;;;;;;;6.35;3.25;;;14.70;99.90;;;;;;5057880;28;20025;-83
2023/02/21 14:55:20;;;;;;;5.97;3.38;;;14.70;99.90;;;;;;5073119;28;20035;-81
2023/02/21 14:58:24;;;;;;;8.23;3.47;;;14.50;99.90;;;;;;5073646;28;20029;-83
2023/02/21 15:01:31;;;;;;;6.05;3.60;;;14.40;99.90;;;;;;5056667;28;20381;-83
2023/02/21 15:04:32;;;;;;;6.80;3.30;;;14.30;99.90;;;;;;4980901;28;20046;-86
2023/02/21 15:07:20;;;;;;;6.82;3.35;;;14.30;99.90;;;;;;5054726;28;20028;-82
2023/02/21 15:10:10;;;;;;;6.75;3.60;;;14.30;99.90;;;;;;5061686;28;20037;-83
2023/02/21 15:12:36;;;;;;;;;;;;;;;;;;5051029;28;20353;-81
2023/02/21 15:15:02;;;;;;;9.18;3.95;;;14.40;99.90;;;;;;5046070;28;19914;-83
2023/02/21 15:17:29;;;;;;;6.95;3.70;;;14.40;99.90;;;;;;5064364;28;20552;-81
2023/02/21 15:20:14;;;;;;;6.40;3.15;;;14.40;99.90;;;;;;5052370;28;20413;-85
2023/02/21 15:22:41;;;;;;;6.50;3.25;;;;;;;;;;5054588;28;20025;-82
2023/02/21 15:25:06;;;;;;;6.53;3.30;;;14.30;99.90;;;;;;5072075;28;20043;-81
2023/02/21 15:27:51;;;;;;;7.03;3.50;;;14.30;99.90;;;;;;5055088;28;20048;-83
2023/02/21 15:30:21;;;;;;;6.97;3.00;;;14.30;99.90;;;;;;5046649;28;20047;-82
2023/02/21 15:33:17;;;;;;;5.30;2.28;;;14.20;99.90;;;;;;5074376;28;20020;-83
2023/02/21 15:35:59;;;;;;;7.35;2.75;;;14.20;99.90;;;;;;5070963;28;20033;-84
2023/02/21 15:38:42;;;;;;;4.75;2.58;;;14.20;99.90;;;;;;5074846;28;20176;-85
2023/02/21 15:41:24;;;;;;;6.22;2.80;;;14.20;99.90;;;;;;5070574;28;20162;-84
2023/02/21 15:44:23;;;;;;;6.55;3.55;;;14.20;99.90;;;;;;5055224;28;20043;-85
2023/02/21 15:46:59;;;;;;;5.65;2.45;;;14.20;99.90;;;;;;5053470;28;20040;-84
2023/02/21 15:49:38;;;;;;;4.45;3.10;;;14.20;99.90;;;;;;5050554;28;20170;-80
2023/02/21 15:52:06;;;;;;;8.60;3.55;;;14.20;99.90;;;;;;5069530;28;20092;-83
2023/02/21 15:54:37;;;;;;;7.82;3.08;;;14.20;99.90;;;;;;5061214;28;20037;-83
2023/02/21 15:57:10;;;;;;;7.32;2.80;;;14.20;99.90;;;;;;5070247;28;20087;-84
2023/02/21 15:59:40;;;;;;;6.13;3.05;;;14.10;99.90;;;;;;5048516;28;20029;-82
2023/02/21 16:02:16;;;;;;;6.13;2.90;;;14.10;99.90;;;;;;5062353;28;20032;-86
2023/02/21 16:04:50;;;;;;;5.78;2.90;;;14.00;99.90;;;;;;5073459;28;20024;-83
2023/02/21 16:07:36;;;;;;;7.82;2.88;;;14.00;99.90;;;;;;5056736;28;20112;-83
2023/02/21 16:10:09;;;;;;;6.78;2.70;;;13.90;99.90;;;;;;5079560;28;20028;-85
2023/02/21 16:12:43;;;;;;;6.07;3.38;;;13.80;99.90;;;;;;5061659;28;20027;-85
2023/02/21 16:15:17;;;;;;;6.15;2.95;;;13.70;99.90;;;;;;5077336;28;20029;-82
2023/02/21 16:17:44;;;;;;;6.72;3.40;;;13.60;99.90;;;;;;5078185;28;20089;-86
2023/02/21 16:20:17;;;;;;;4.53;2.03;;;13.60;99.90;;;;;;5064598;28;20029;-85
2023/02/21 16:22:46;;;;;;;9.70;3.55;;;13.40;99.90;;;;;;5077081;28;20560;-85
2023/02/21 16:25:12;;;;;;;7.95;2.50;;;;;;;;;;5063689;28;20029;-88
2023/02/21 16:27:40;;;;;;;5.85;3.33;;;13.40;99.90;;;;;;5078083;28;20039;-84
2023/02/21 16:30:11;;;;;;;6.15;3.47;;;13.50;99.90;;;;;;5061223;28;20036;-86
2023/02/21 16:32:38;;;;;;;5.63;3.30;;;13.40;99.90;;;;;;5079241;28;20024;-85
2023/02/21 16:35:07;;;;;;;11.65;4.35;;;13.30;99.90;;;;;;5082435;28;20024;-83
2023/02/21 16:37:32;;;;;;;6.22;3.70;;;13.20;99.90;;;;;;5074753;28;20028;-83
2023/02/21 16:39:59;;;;;;;7.68;3.88;;;;;;;;;;5081426;28;20085;-88
2023/02/21 16:42:25;;;;;;;13.32;3.80;;;13.10;99.90;;;;;;5067018;28;20060;-83
2023/02/21 16:44:51;;;;;;;8.40;2.90;;;;;;;;;;5054375;28;20029;-86
2023/02/21 16:47:19;;;;;;;6.18;3.10;;;13.00;99.90;;;;;;5055190;28;20021;-83
2023/02/21 16:49:44;;;;;;;11.43;4.32;;;13.00;99.90;;;;;;5077014;28;20051;-84
2023/02/21 16:52:15;;;;;;;6.13;3.20;;;12.90;99.90;;;;;;5066731;28;20505;-86
2023/02/21 16:54:40;;;;;;;7.63;3.70;;;12.50;99.90;;;;;;5075804;28;20250;-81
2023/02/21 16:57:06;;;;;;;8.25;3.40;;;12.90;99.90;;;;;;5074604;28;20565;-81
2023/02/21 16:59:32;;;;;;;6.78;3.53;;;12.50;99.90;;;;;;5057252;28;20036;-83
2023/02/21 17:02:00;;;;;;;6.22;3.55;;;12.50;99.90;;;;;;5063118;28;20028;-82
2023/02/21 17:04:26;;;;;;;7.75;3.88;;;12.60;99.90;;;;;;5056518;28;20381;-84
2023/02/21 17:06:58;;;;;;;9.48;4.32;;;12.20;99.90;;;;;;5081364;22;20039;-87
2023/02/21 17:09:27;;;;;;;9.55;4.20;;;12.20;99.90;;;;;;5103834;28;20020;-88
2023/02/21 17:11:53;;;;;;;7.57;3.95;;;;;;;;;;5103108;28;20024;-88
2023/02/21 17:14:20;;;;;;;7.30;4.20;;;;;;;;;;5076958;28;20037;-89
2023/02/21 17:16:48;;;;;;;11.88;4.40;;;12.00;99.90;;;;;;5080333;28;20048;-86
2023/02/21 17:19:16;;;;;;;8.23;4.45;;;12.00;99.90;;;;;;5095982;28;20028;-88
2023/02/21 17:21:43;;;;;;;13.95;6.60;;;11.90;99.90;;;;;;5065422;28;20031;-87
2023/02/21 17:24:13;;;;;;;11.25;5.93;;;11.80;99.90;;;;;;5076306;28;20036;-88
2023/02/21 17:26:39;;;;;;;10.18;5.15;;;;;;;;;;5078993;28;21523;-85
2023/02/21 17:29:13;;;;;;;8.20;4.20;;;;;;;;;;5086245;28;20036;-87
2023/02/21 17:31:42;;;;;;;7.47;3.85;;;11.70;99.90;;;;;;5085273;28;20032;-87
2023/02/21 17:34:07;;;;;;;9.38;3.88;;;11.60;99.90;;;;;;5096636;28;20033;-88
2023/02/21 17:36:33;;;;;;;5.60;3.30;;;;;;;;;;5082636;28;20067;-85
2023/02/21 17:39:02;;;;;;;7.10;3.58;;;11.70;99.90;;;;;;5090671;28;20062;-87
2023/02/21 17:41:47;;;;;;;8.07;3.35;;;11.60;99.90;;;;;;5083451;28;20028;-89
2023/02/21 17:44:16;;;;;;;7.28;3.13;;;;;;;;;;5086315;28;20024;-89
2023/02/21 17:46:54;;;;;;;8.07;4.57;;;11.40;99.90;;;;;;5108540;28;20032;-89
2023/02/21 17:49:25;;;;;;;7.00;3.70;;;11.30;99.90;;;;;;5109038;28;20289;-90
2023/02/21 17:52:16;;;;;;;;;;;;;;;;;;;;;
2023/02/21 17:55:32;;;;;;;;;;;;;;;;;;;;;
2023/02/21 17:58:48;;;;;;;10.68;4.50;;;11.40;99.90;;;;;;5102181;28;20032;-88
2023/02/21 18:02:06;;;;;;;14.52;5.55;;;11.00;99.90;;;;;;5051923;28;20190;-85
2023/02/21 18:04:50;;;;;;;8.73;4.63;;;;;;;;;;5042542;28;20060;-84
2023/02/21 18:07:27;;;;;;;11.35;6.00;;;;;;;;;;5087950;28;20047;-87
2023/02/21 18:09:53;;;;;;;15.32;8.13;;;10.80;99.90;;;;;;5088437;28;20048;-86
2023/02/21 18:12:54;;;;;;;10.93;5.20;;;11.00;99.90;;;;;;5072459;28;20032;-88
2023/02/21 18:15:54;;;;;;;8.20;3.67;;;13.90;99.90;;;;;;5090718;28;20039;-85
2023/02/21 18:18:26;;;;;;;9.32;4.88;;;;;;;;;;5111598;28;20050;-88
2023/02/21 18:21:40;;;;;;;9.05;3.65;;;12.20;99.90;;;;;;5111686;28;20020;-89
2023/02/21 18:24:40;;;;;;;6.82;3.67;;;10.60;99.90;;;;;;5088612;28;20071;-87
2023/02/21 18:27:13;;;;;;;10.35;3.88;;;;;;;;;;5104370;28;20039;-87
2023/02/21 18:30:09;;;;;;;11.23;3.78;;;10.50;99.90;;;;;;5108487;28;20020;-87
2023/02/21 18:32:38;;;;;;;11.57;5.35;;;10.50;99.90;;;;;;5088917;28;20050;-87
2023/02/21 18:35:13;;;;;;;7.28;4.20;;;12.10;99.90;;;;;;5105024;28;20028;-85
2023/02/21 18:41:06;;;;;;;12.40;5.53;;;10.30;99.90;;;;;;5098212;28;20077;-86
2023/02/21 21:34:40;;;;;;;14.15;7.72;;;7.20;99.90;;;;;;5921949;22;8510776;-81
2023/02/21 21:41:45;;;;;;;20.57;9.83;;;7.10;99.90;;;;;;6247383;22;20188;-82
2023/02/21 21:51:49;;;;;;;17.88;8.57;;;7.10;99.90;;;;;;6174257;23;20021;-80
2023/02/21 21:55:25;;;;;;;20.35;9.77;;;7.10;99.90;;;;;;6219963;22;20008;-81
2023/02/21 22:02:28;;;;;;;21.05;10.70;;;6.90;99.90;;;;;;6114010;23;20062;-81
2023/02/21 22:06:09;;;;;;;24.40;11.23;;;6.80;99.90;;;;;;6085230;23;19998;-81
2023/02/21 22:09:35;;;;;;;21.58;10.52;;;6.80;99.90;;;;;;6056025;23;20004;-80
2023/02/21 22:12:50;;;;;;;16.98;9.70;;;;;;;;;;6232139;23;20023;-81
2023/02/21 22:15:43;;;;;;;16.58;9.00;;;;;;;;;;6262764;22;20000;-81
2023/02/21 22:18:54;;;;;;;20.42;9.82;;;;;;;;;;6234177;23;20008;-83
2023/02/21 22:22:16;;;;;;;18.60;9.30;;;6.70;99.90;;;;;;6262898;23;20027;-82
2023/02/21 22:25:12;;;;;;;18.65;10.07;;;6.70;99.90;;;;;;6214275;22;20004;-83
2023/02/21 22:27:43;;;;;;;21.17;10.20;;;6.60;99.90;;;;;;6261233;23;20012;-81
2023/02/21 22:30:18;;;;;;;17.67;10.32;;;6.60;99.90;;;;;;6261295;23;20382;-81
2023/02/21 22:32:51;;;;;;;20.40;10.77;;;6.60;99.90;;;;;;6237503;23;20115;-81
2023/02/21 22:42:16;;;;;;;21.38;10.70;;;6.40;99.90;;;;;;6262966;23;20019;-82
2023/02/21 22:44:54;;;;;;;20.80;10.50;;;6.30;99.90;;;;;;6256641;22;20011;-81
2023/02/21 22:47:40;;;;;;;20.08;11.30;;;6.30;99.90;;;;;;6248695;23;20008;-80
2023/02/21 22:50:20;;;;;;;16.55;9.88;;;6.20;99.90;;;;;;6253665;22;20004;-81
2023/02/21 22:53:11;;;;;;;23.27;11.45;;;6.20;99.90;;;;;;6253065;23;20067;-81
2023/02/21 22:55:52;;;;;;;23.08;11.48;;;6.20;99.90;;;;;;6231115;23;20023;-81
2023/02/21 22:58:41;;;;;;;18.13;10.32;;;6.10;99.90;;;;;;6254515;22;20004;-81